createdAt,value
2022-10-30T00:01:40.043Z,15.53
2022-10-30T00:04:42.585Z,15.75
2022-10-30T00:07:45.075Z,15.61
2022-10-30T00:10:50.139Z,15.48
2022-10-30T00:13:53.966Z,15.38
2022-10-30T00:16:56.462Z,15.51
2022-10-30T00:19:58.988Z,15.49
2022-10-30T00:23:01.681Z,15.46
2022-10-30T00:26:05.362Z,15.45
2022-10-30T00:29:09.180Z,15.50
2022-10-30T00:32:11.822Z,15.48
2022-10-30T00:35:14.340Z,15.49
2022-10-30T00:38:16.857Z,15.50
2022-10-30T00:41:22.982Z,15.45
2022-10-30T00:44:45.945Z,15.45
2022-10-30T00:47:53.777Z,15.40
2022-10-30T00:50:57.983Z,15.40
2022-10-30T00:54:03.849Z,15.34
2022-10-30T00:57:08.882Z,15.31
2022-10-30T01:00:14.539Z,15.28
2022-10-30T01:03:19.543Z,15.28
2022-10-30T01:06:23.477Z,15.30
2022-10-30T01:09:26.046Z,15.29
2022-10-30T01:12:28.827Z,15.24
2022-10-30T01:15:37.385Z,15.26
2022-10-30T01:18:49.251Z,15.29
2022-10-30T01:22:07.837Z,15.26
2022-10-30T01:25:23.791Z,15.23
2022-10-30T01:28:36.404Z,15.25
2022-10-30T01:31:52.824Z,15.26
2022-10-30T01:35:00.657Z,15.19
2022-10-30T01:38:07.903Z,15.20
2022-10-30T01:41:10.427Z,15.17
2022-10-30T01:44:18.213Z,15.27
2022-10-30T01:47:33.930Z,15.30
2022-10-30T01:50:48.431Z,15.30
2022-10-30T01:53:59.974Z,15.28
2022-10-30T01:57:09.173Z,15.29
2022-10-30T02:00:13.528Z,15.30
2022-10-30T02:03:17.400Z,15.26
2022-10-30T02:06:20.120Z,15.28
2022-10-30T02:09:22.789Z,15.31
2022-10-30T02:12:26.402Z,15.30
2022-10-30T02:15:29.099Z,15.30
2022-10-30T02:18:32.970Z,15.32
2022-10-30T02:21:36.846Z,15.38
2022-10-30T02:24:39.552Z,15.32
2022-10-30T02:27:42.312Z,15.30
2022-10-30T02:30:44.928Z,15.32
2022-10-30T02:33:48.317Z,15.26
2022-10-30T02:36:52.107Z,15.16
2022-10-30T02:39:54.622Z,15.18
2022-10-30T02:42:57.117Z,15.11
2022-10-30T02:45:59.761Z,15.11
2022-10-30T02:49:02.808Z,15.04
2022-10-30T02:52:07.606Z,14.98
2022-10-30T02:55:10.680Z,15.02
2022-10-30T02:58:13.152Z,15.00
2022-10-30T03:01:17.506Z,15.00
2022-10-30T03:04:20.061Z,14.96
2022-10-30T03:07:23.940Z,14.94
2022-10-30T03:10:26.460Z,14.92
2022-10-30T03:13:30.479Z,14.87
2022-10-30T03:16:33.548Z,14.88
2022-10-30T03:19:36.548Z,14.91
2022-10-30T03:22:40.389Z,14.80
2022-10-30T03:25:42.874Z,14.85
2022-10-30T03:28:45.977Z,14.86
2022-10-30T03:31:48.468Z,14.83
2022-10-30T03:34:50.937Z,14.81
2022-10-30T03:37:54.761Z,14.85
2022-10-30T03:40:57.514Z,14.74
2022-10-30T03:44:00.262Z,14.82
2022-10-30T03:47:02.777Z,14.83
2022-10-30T03:50:05.872Z,14.82
2022-10-30T03:53:09.790Z,14.87
2022-10-30T03:56:12.444Z,14.90
2022-10-30T03:59:14.930Z,14.90
2022-10-30T04:02:17.516Z,14.88
2022-10-30T04:05:22.565Z,14.86
2022-10-30T04:08:26.384Z,14.81
2022-10-30T04:11:28.944Z,14.79
2022-10-30T04:14:31.457Z,14.75
2022-10-30T04:17:34.251Z,14.70
2022-10-30T04:20:36.801Z,14.69
2022-10-30T04:23:40.640Z,14.71
2022-10-30T04:26:43.121Z,14.64
2022-10-30T04:29:46.641Z,14.59
2022-10-30T04:32:49.854Z,14.53
2022-10-30T04:35:52.435Z,14.56
2022-10-30T04:38:56.247Z,14.57
2022-10-30T04:41:58.780Z,14.56
2022-10-30T04:45:04.984Z,14.49
2022-10-30T04:48:09.283Z,14.45
2022-10-30T04:51:12.602Z,14.38
2022-10-30T04:54:16.414Z,14.42
2022-10-30T04:57:18.905Z,14.46
2022-10-30T05:00:21.400Z,14.50
2022-10-30T05:03:25.414Z,14.52
2022-10-30T05:06:30.798Z,14.49
2022-10-30T05:09:34.659Z,14.51
2022-10-30T05:12:37.131Z,14.48
2022-10-30T05:15:39.676Z,14.49
2022-10-30T05:18:42.152Z,14.53
2022-10-30T05:21:44.636Z,14.57
2022-10-30T05:24:48.437Z,14.58
2022-10-30T05:27:50.927Z,14.58
2022-10-30T05:30:53.742Z,14.58
2022-10-30T05:33:56.233Z,14.53
2022-10-30T05:36:58.696Z,14.51
2022-10-30T05:40:02.574Z,14.49
2022-10-30T05:43:06.073Z,14.48
2022-10-30T05:46:08.628Z,14.38
2022-10-30T05:49:11.140Z,14.37
2022-10-30T05:52:13.653Z,14.36
2022-10-30T05:55:17.462Z,14.34
2022-10-30T05:58:19.953Z,14.35
2022-10-30T06:01:22.745Z,14.33
2022-10-30T06:04:25.307Z,14.34
2022-10-30T06:07:27.789Z,14.31
2022-10-30T06:10:31.793Z,14.33
2022-10-30T06:13:34.289Z,14.27
2022-10-30T06:16:37.978Z,14.24
2022-10-30T06:19:40.475Z,14.23
2022-10-30T06:22:42.982Z,14.25
2022-10-30T06:25:47.119Z,14.20
2022-10-30T06:28:49.650Z,14.24
2022-10-30T06:31:52.149Z,14.26
2022-10-30T06:34:54.621Z,14.30
2022-10-30T06:38:00.048Z,14.28
2022-10-30T06:41:03.870Z,14.33
2022-10-30T06:44:06.431Z,14.31
2022-10-30T06:47:08.929Z,14.34
2022-10-30T06:50:12.992Z,14.40
2022-10-30T06:53:15.505Z,14.39
2022-10-30T06:56:19.321Z,14.39
2022-10-30T06:59:21.842Z,14.45
2022-10-30T07:02:24.383Z,14.43
2022-10-30T07:05:27.101Z,14.52
2022-10-30T07:08:29.602Z,14.55
2022-10-30T07:11:33.422Z,14.47
2022-10-30T07:14:36.568Z,14.51
2022-10-30T07:17:39.036Z,14.59
2022-10-30T07:20:41.624Z,14.62
2022-10-30T07:23:44.087Z,14.71
2022-10-30T07:26:47.904Z,14.80
2022-10-30T07:29:50.379Z,14.86
2022-10-30T07:33:01.246Z,14.72
2022-10-30T07:36:04.707Z,14.93
2022-10-30T07:39:07.305Z,15.05
2022-10-30T07:42:11.120Z,15.16
2022-10-30T07:45:13.603Z,15.07
2022-10-30T07:48:16.077Z,15.00
2022-10-30T07:51:18.566Z,15.09
2022-10-30T07:54:21.036Z,15.25
2022-10-30T07:57:24.981Z,15.24
2022-10-30T08:00:27.638Z,15.29
2022-10-30T08:03:30.554Z,15.34
2022-10-30T08:06:33.064Z,15.43
2022-10-30T08:09:35.522Z,15.45
2022-10-30T08:12:40.512Z,15.45
2022-10-30T08:15:43.377Z,15.47
2022-10-30T08:18:45.891Z,15.39
2022-10-30T08:21:48.384Z,15.37
2022-10-30T08:24:50.898Z,15.44
2022-10-30T08:27:56.549Z,15.70
2022-10-30T08:30:59.611Z,15.76
2022-10-30T08:34:02.143Z,16.12
2022-10-30T08:37:04.651Z,16.23
2022-10-30T08:40:08.921Z,16.42
2022-10-30T08:43:13.082Z,16.59
2022-10-30T08:46:15.581Z,16.53
2022-10-30T08:49:18.076Z,16.76
2022-10-30T08:52:20.620Z,16.72
2022-10-30T08:55:23.187Z,16.62
2022-10-30T08:58:27.014Z,16.82
2022-10-30T09:01:29.545Z,16.36
2022-10-30T09:04:32.108Z,16.61
2022-10-30T09:07:34.885Z,16.87
2022-10-30T09:10:37.353Z,16.97
2022-10-30T09:13:41.274Z,17.01
2022-10-30T09:16:43.733Z,17.14
2022-10-30T09:22:48.675Z,17.64
2022-10-30T09:25:51.140Z,17.57
2022-10-30T09:28:55.073Z,17.75
2022-10-30T09:31:57.754Z,17.96
2022-10-30T09:35:00.216Z,17.73
2022-10-30T09:38:02.968Z,18.01
2022-10-30T09:41:21.700Z,18.13
2022-10-30T09:44:36.970Z,18.33
2022-10-30T09:47:50.368Z,18.63
2022-10-30T09:51:01.745Z,19.21
2022-10-30T09:54:16.079Z,19.28
2022-10-30T09:57:30.041Z,19.74
2022-10-30T10:00:38.871Z,20.22
2022-10-30T10:03:56.733Z,20.81
2022-10-30T10:07:03.729Z,20.94
2022-10-30T10:10:11.780Z,20.27
2022-10-30T10:13:26.812Z,20.09
2022-10-30T10:16:35.213Z,19.95
2022-10-30T10:19:42.684Z,20.34
2022-10-30T10:22:49.616Z,21.58
2022-10-30T10:25:54.583Z,22.57
2022-10-30T10:29:11.335Z,23.41
2022-10-30T10:32:52.910Z,23.71
2022-10-30T10:36:06.611Z,24.34
2022-10-30T10:39:27.003Z,24.34
2022-10-30T10:42:40.873Z,24.40
2022-10-30T10:45:53.868Z,24.66
2022-10-30T10:49:14.600Z,25.17
2022-10-30T10:52:20.663Z,25.49
2022-10-30T10:55:27.653Z,26.27
2022-10-30T10:58:36.319Z,26.90
2022-10-30T11:01:41.026Z,26.23
2022-10-30T11:04:50.754Z,27.36
2022-10-30T11:07:58.123Z,27.28
2022-10-30T11:11:02.296Z,26.75
2022-10-30T11:14:14.878Z,27.60
2022-10-30T11:17:23.596Z,27.84
2022-10-30T11:20:35.736Z,26.85
2022-10-30T11:23:40.635Z,24.97
2022-10-30T11:26:43.645Z,24.83
2022-10-30T11:29:51.927Z,24.28
2022-10-30T11:32:56.980Z,23.51
2022-10-30T11:36:15.446Z,23.16
2022-10-30T11:39:20.113Z,22.65
2022-10-30T11:42:22.682Z,22.43
2022-10-30T11:45:27.684Z,22.57
2022-10-30T11:48:33.541Z,22.66
2022-10-30T11:51:40.490Z,23.65
2022-10-30T11:54:45.948Z,24.53
2022-10-30T11:57:51.756Z,25.47
2022-10-30T12:01:04.912Z,25.47
2022-10-30T12:04:23.499Z,25.53
2022-10-30T12:07:30.694Z,25.06
2022-10-30T12:10:37.534Z,24.12
2022-10-30T12:13:41.386Z,23.86
2022-10-30T12:16:48.245Z,23.30
2022-10-30T12:19:54.228Z,23.14
2022-10-30T12:22:59.152Z,23.15
2022-10-30T12:26:09.911Z,23.59
2022-10-30T12:29:17.561Z,24.11
2022-10-30T12:32:22.750Z,24.56
2022-10-30T12:35:38.415Z,24.78
2022-10-30T12:38:46.476Z,25.78
2022-10-30T12:41:58.538Z,25.03
2022-10-30T12:45:10.376Z,26.36
2022-10-30T12:48:19.127Z,26.18
2022-10-30T12:51:28.449Z,26.47
2022-10-30T12:54:38.140Z,25.79
2022-10-30T12:57:45.540Z,26.55
2022-10-30T13:00:55.632Z,27.03
2022-10-30T13:04:07.160Z,27.99
2022-10-30T13:07:19.467Z,27.96
2022-10-30T13:10:31.927Z,28.36
2022-10-30T13:13:37.871Z,28.65
2022-10-30T13:16:40.377Z,28.17
2022-10-30T13:19:45.401Z,28.13
2022-10-30T13:22:52.792Z,27.83
2022-10-30T13:26:08.869Z,27.28
2022-10-30T13:29:21.261Z,26.02
2022-10-30T13:32:32.107Z,25.76
2022-10-30T13:35:42.273Z,25.38
2022-10-30T13:38:52.740Z,24.92
2022-10-30T13:42:11.302Z,24.91
2022-10-30T13:45:40.619Z,24.91
2022-10-30T13:48:56.871Z,24.49
2022-10-30T13:52:05.665Z,23.92
2022-10-30T13:55:18.795Z,23.59
2022-10-30T13:58:30.029Z,23.23
2022-10-30T14:01:37.662Z,22.84
2022-10-30T14:04:49.579Z,22.45
2022-10-30T14:08:06.048Z,22.32
2022-10-30T14:11:13.617Z,22.17
2022-10-30T14:14:30.421Z,21.97
2022-10-30T14:17:32.916Z,21.77
2022-10-30T14:20:35.477Z,21.73
2022-10-30T14:23:39.217Z,21.58
2022-10-30T14:26:50.084Z,21.40
2022-10-30T14:29:57.066Z,21.30
2022-10-30T14:32:59.573Z,21.22
2022-10-30T14:36:19.826Z,21.13
2022-10-30T14:39:30.441Z,21.04
2022-10-30T14:42:40.889Z,20.95
2022-10-30T14:45:52.220Z,20.91
2022-10-30T14:49:04.811Z,20.76
2022-10-30T14:52:18.893Z,20.66
2022-10-30T14:55:31.816Z,20.57
2022-10-30T14:58:36.253Z,20.41
2022-10-30T15:01:49.883Z,20.31
2022-10-30T15:05:20.077Z,20.20
2022-10-30T15:08:48.005Z,20.08
2022-10-30T15:12:19.391Z,20.01
2022-10-30T15:15:22.541Z,19.88
2022-10-30T15:18:30.524Z,19.67
2022-10-30T15:21:42.154Z,19.55
2022-10-30T15:24:44.668Z,19.53
2022-10-30T15:27:48.641Z,19.36
2022-10-30T15:31:02.160Z,19.29
2022-10-30T15:34:22.597Z,19.21
2022-10-30T15:37:25.162Z,19.06
2022-10-30T15:40:28.739Z,19.01
2022-10-30T15:43:33.278Z,18.85
2022-10-30T15:46:36.071Z,18.73
2022-10-30T15:49:43.012Z,18.69
2022-10-30T15:52:45.546Z,18.62
2022-10-30T15:55:49.370Z,18.49
2022-10-30T15:58:54.816Z,18.39
2022-10-30T16:01:58.853Z,18.33
2022-10-30T16:05:02.896Z,18.25
2022-10-30T16:08:13.275Z,18.21
2022-10-30T16:11:16.595Z,18.16
2022-10-30T16:14:23.383Z,18.03
2022-10-30T16:17:27.601Z,17.96
2022-10-30T16:20:31.468Z,17.92
2022-10-30T16:23:39.302Z,17.82
2022-10-30T16:26:41.911Z,17.67
2022-10-30T16:29:46.680Z,17.69
2022-10-30T16:32:54.521Z,17.64
2022-10-30T16:35:59.564Z,17.66
2022-10-30T16:39:02.587Z,17.53
2022-10-30T16:42:05.662Z,17.53
2022-10-30T16:45:47.985Z,17.37
2022-10-30T16:48:57.569Z,17.40
2022-10-30T16:52:05.039Z,17.29
2022-10-30T16:55:10.005Z,17.31
2022-10-30T16:58:14.587Z,17.18
2022-10-30T17:01:17.514Z,17.14
2022-10-30T17:04:20.175Z,17.03
2022-10-30T17:07:26.322Z,17.08
2022-10-30T17:10:34.145Z,17.07
2022-10-30T17:13:38.218Z,16.99
2022-10-30T17:16:41.325Z,16.97
2022-10-30T17:19:48.542Z,16.89
2022-10-30T17:23:05.345Z,16.88
2022-10-30T17:26:12.504Z,16.86
2022-10-30T17:29:44.982Z,16.81
2022-10-30T17:32:53.497Z,16.71
2022-10-30T17:35:56.105Z,16.69
2022-10-30T17:38:59.937Z,16.65
2022-10-30T17:42:02.460Z,16.61
2022-10-30T17:45:06.991Z,16.63
2022-10-30T17:48:14.948Z,16.53
2022-10-30T17:51:18.921Z,16.49
2022-10-30T17:54:23.042Z,16.41
2022-10-30T17:57:27.009Z,16.40
2022-10-30T18:00:29.513Z,16.35
2022-10-30T18:03:32.097Z,16.29
2022-10-30T18:06:34.582Z,16.31
2022-10-30T18:09:39.035Z,16.25
2022-10-30T18:12:42.298Z,16.22
2022-10-30T18:15:48.946Z,16.31
2022-10-30T18:18:53.373Z,16.22
2022-10-30T18:21:55.859Z,16.16
2022-10-30T18:24:59.701Z,16.17
2022-10-30T18:28:02.218Z,16.08
2022-10-30T18:31:04.814Z,16.01
2022-10-30T18:34:15.161Z,16.05
2022-10-30T18:37:17.651Z,15.99
2022-10-30T18:40:22.713Z,15.97
2022-10-30T18:43:25.402Z,15.87
2022-10-30T18:46:29.098Z,15.84
2022-10-30T18:49:33.253Z,15.78
2022-10-30T18:52:35.728Z,15.85
2022-10-30T18:55:41.200Z,15.80
2022-10-30T18:58:43.703Z,15.69
2022-10-30T19:01:46.284Z,15.67
2022-10-30T19:04:48.837Z,15.60
2022-10-30T19:07:51.316Z,15.58
2022-10-30T19:10:57.996Z,15.56
2022-10-30T19:14:00.704Z,15.50
2022-10-30T19:17:03.258Z,15.50
2022-10-30T19:20:06.618Z,15.50
2022-10-30T19:23:15.064Z,15.44
2022-10-30T19:26:18.892Z,15.42
2022-10-30T19:29:21.371Z,15.41
2022-10-30T19:32:23.901Z,15.31
2022-10-30T19:35:27.177Z,15.32
2022-10-30T19:38:30.086Z,15.30
2022-10-30T19:41:33.936Z,15.24
2022-10-30T19:44:36.436Z,15.26
2022-10-30T19:47:39.051Z,15.22
2022-10-30T19:50:42.663Z,15.17
2022-10-30T19:53:45.141Z,15.15
2022-10-30T19:56:48.945Z,15.17
2022-10-30T19:59:51.426Z,15.04
2022-10-30T20:02:55.224Z,15.04
2022-10-30T20:05:57.720Z,15.10
2022-10-30T20:09:02.429Z,15.07
2022-10-30T20:12:07.006Z,15.02
2022-10-30T20:15:14.024Z,15.03
2022-10-30T20:18:18.712Z,15.02
2022-10-30T20:21:21.499Z,14.94
2022-10-30T20:24:24.356Z,14.85
2022-10-30T20:27:28.205Z,14.81
2022-10-30T20:30:31.154Z,14.84
2022-10-30T20:33:33.972Z,14.85
2022-10-30T20:36:36.461Z,14.83
2022-10-30T20:39:38.952Z,14.81
2022-10-30T20:42:43.264Z,14.78
2022-10-30T20:45:45.862Z,14.77
2022-10-30T20:48:48.915Z,14.77
2022-10-30T20:51:51.418Z,14.71
2022-10-30T20:54:53.916Z,14.72
2022-10-30T20:57:58.049Z,14.65
2022-10-30T21:01:00.866Z,14.66
2022-10-30T21:04:03.434Z,14.57
2022-10-30T21:07:05.932Z,14.59
2022-10-30T21:10:08.980Z,14.58
2022-10-30T21:13:12.841Z,14.57
2022-10-30T21:16:15.336Z,14.51
2022-10-30T21:19:17.854Z,14.48
2022-10-30T21:22:20.337Z,14.47
2022-10-30T21:25:22.871Z,14.44
2022-10-30T21:28:26.697Z,14.44
2022-10-30T21:31:29.264Z,14.39
2022-10-30T21:34:31.757Z,14.35
2022-10-30T21:37:35.590Z,14.32
2022-10-30T21:40:38.109Z,14.36
2022-10-30T21:43:41.949Z,14.35
2022-10-30T21:46:44.455Z,14.26
2022-10-30T21:49:46.911Z,14.29
2022-10-30T21:52:49.392Z,14.24
2022-10-30T21:55:51.869Z,14.22
2022-10-30T21:58:56.683Z,14.19
2022-10-30T22:01:59.231Z,14.19
2022-10-30T22:05:01.725Z,14.16
2022-10-30T22:08:04.245Z,14.12
2022-10-30T22:11:08.243Z,14.11
2022-10-30T22:14:12.277Z,14.04
2022-10-30T22:17:14.752Z,13.95
2022-10-30T22:20:17.548Z,13.97
2022-10-30T22:23:20.037Z,14.01
2022-10-30T22:26:24.008Z,14.03
2022-10-30T22:29:27.860Z,14.04
2022-10-30T22:32:30.346Z,14.06
2022-10-30T22:35:32.830Z,14.10
2022-10-30T22:38:36.093Z,14.10
2022-10-30T22:41:38.724Z,14.03
2022-10-30T22:44:42.604Z,13.97
2022-10-30T22:47:45.091Z,13.99
2022-10-30T22:50:47.576Z,13.99
2022-10-30T22:53:56.901Z,14.02
2022-10-30T22:56:59.395Z,14.02
2022-10-30T23:00:03.213Z,14.02
2022-10-30T23:03:05.773Z,14.00
2022-10-30T23:06:08.679Z,14.04
2022-10-30T23:09:16.944Z,14.04
2022-10-30T23:12:19.432Z,14.07
2022-10-30T23:15:23.713Z,14.11
2022-10-30T23:18:26.320Z,14.14
2022-10-30T23:21:30.859Z,14.10
2022-10-30T23:24:33.803Z,14.15
2022-10-30T23:27:36.620Z,14.21
2022-10-30T23:30:43.846Z,14.26
2022-10-30T23:33:47.528Z,14.19
2022-10-30T23:36:49.995Z,14.08
2022-10-30T23:39:52.481Z,14.09
2022-10-30T23:42:55.383Z,14.00
2022-10-30T23:45:59.290Z,13.97
2022-10-30T23:49:02.372Z,13.96
2022-10-30T23:52:04.994Z,13.95
2022-10-30T23:55:08.715Z,13.91
2022-10-30T23:58:11.262Z,13.92
